Time;durP1;ratioP1;P1;durP2;ratioP2;P2;SDS_P1;SDS_P2;PMS_P1;PMS_P2;Temp;Humidity;BMP_temperature;BMP_pressure;BME280_temperature;BME280_humidity;BME280_pressure;Samples;Min_cycle;Max_cycle;Signal;HPM_P1;HPM_P2
2021/03/28 00:01:07;;;;;;;15.68;11.45;;;24.80;93.10;;;;;;5043900;28;20017;-48
2021/03/28 00:03:42;;;;;;;19.13;14.27;;;24.80;93.10;;;;;;5043985;28;20017;-45
2021/03/28 00:06:30;;;;;;;12.43;10.35;;;24.80;93.20;;;;;;5043703;28;20339;-46
2021/03/28 00:09:34;;;;;;;11.70;9.55;;;24.80;93.00;;;;;;5043441;28;20088;-47
2021/03/28 00:12:13;;;;;;;10.73;7.75;;;24.80;93.10;;;;;;5023404;28;20064;-51
2021/03/28 00:14:43;;;;;;;12.43;7.10;;;24.80;92.90;;;;;;5043504;28;20026;-44
2021/03/28 00:17:33;;;;;;;13.80;6.68;;;24.80;92.90;;;;;;5043978;28;20036;-46
2021/03/28 00:20:32;;;;;;;9.25;4.80;;;24.80;92.90;;;;;;5043188;28;20024;-47
2021/03/28 00:23:14;;;;;;;11.40;5.97;;;24.80;92.90;;;;;;5041131;28;20105;-46
2021/03/28 00:25:44;;;;;;;6.50;4.80;;;24.80;93.00;;;;;;5042193;28;20013;-43
2021/03/28 00:28:23;;;;;;;9.00;5.13;;;24.80;93.00;;;;;;5040766;28;20020;-45
2021/03/28 00:30:51;;;;;;;8.50;4.88;;;24.70;93.10;;;;;;5036809;28;20041;-44
2021/03/28 00:33:27;;;;;;;9.48;4.50;;;24.70;93.10;;;;;;5043021;28;20380;-44
2021/03/28 00:36:07;;;;;;;9.00;4.70;;;24.70;93.10;;;;;;5043070;28;20353;-49
2021/03/28 00:38:39;;;;;;;11.15;4.82;;;24.70;92.90;;;;;;5043227;28;20022;-44
2021/03/28 00:41:24;;;;;;;13.38;4.40;;;24.80;92.90;;;;;;5043131;28;20119;-44
2021/03/28 00:44:19;;;;;;;9.73;3.95;;;24.70;92.90;;;;;;5023432;28;20093;-45
2021/03/28 00:46:52;;;;;;;23.52;20.98;;;24.80;93.10;;;;;;5036574;28;20061;-44
2021/03/28 00:49:33;;;;;;;82.80;74.03;;;24.80;93.10;;;;;;5043234;28;20033;-49
2021/03/28 00:52:20;;;;;;;15.07;13.40;;;24.80;93.00;;;;;;5042146;28;20021;-44
2021/03/28 00:54:49;;;;;;;8.30;5.13;;;24.80;92.90;;;;;;5033121;28;20322;-43
2021/03/28 00:57:39;;;;;;;11.25;6.07;;;24.80;92.70;;;;;;5043455;28;20025;-43
2021/03/28 01:00:14;;;;;;;12.73;5.20;;;24.80;92.50;;;;;;5043023;28;20021;-44
2021/03/28 01:03:02;;;;;;;11.73;6.10;;;24.80;92.50;;;;;;5043686;28;20028;-44
2021/03/28 01:05:47;;;;;;;11.35;5.30;;;24.80;92.40;;;;;;5042283;28;20022;-44
2021/03/28 01:08:38;;;;;;;11.27;4.75;;;24.80;92.30;;;;;;5042160;28;20222;-44
2021/03/28 01:11:23;;;;;;;8.73;4.30;;;24.80;92.50;;;;;;5043417;28;20131;-48
2021/03/28 01:14:14;;;;;;;10.88;4.05;;;24.80;92.50;;;;;;5043066;28;20265;-45
2021/03/28 01:17:18;;;;;;;6.93;2.95;;;24.80;92.50;;;;;;5042930;28;20044;-44
2021/03/28 01:20:02;;;;;;;5.70;2.30;;;24.80;92.50;;;;;;5043079;28;20048;-47
2021/03/28 01:22:29;;;;;;;6.00;3.10;;;24.80;92.40;;;;;;5041912;28;20029;-46
2021/03/28 01:25:30;;;;;;;6.70;2.75;;;24.80;92.30;;;;;;5043235;28;20048;-44
2021/03/28 01:28:12;;;;;;;10.02;2.90;;;24.80;92.40;;;;;;5041638;28;20033;-44
2021/03/28 01:30:49;;;;;;;5.55;2.10;;;24.80;92.30;;;;;;5043437;28;20088;-46
2021/03/28 01:33:26;;;;;;;3.92;1.92;;;24.80;92.20;;;;;;5046344;28;20030;-45
2021/03/28 01:36:07;;;;;;;4.85;1.73;;;24.80;92.10;;;;;;5046077;28;20025;-45
2021/03/28 01:38:46;;;;;;;3.35;1.50;;;24.80;92.10;;;;;;5046221;28;20245;-44
2021/03/28 01:41:24;;;;;;;7.72;1.90;;;24.80;92.00;;;;;;5046231;28;20070;-45
2021/03/28 01:43:59;;;;;;;8.43;2.00;;;24.80;91.90;;;;;;5046163;28;20022;-49
2021/03/28 01:46:57;;;;;;;9.23;1.92;;;24.80;92.00;;;;;;5046554;28;20032;-45
2021/03/28 01:49:47;;;;;;;7.32;1.73;;;24.80;91.90;;;;;;5046188;28;20028;-48
2021/03/28 01:52:34;;;;;;;7.70;1.70;;;24.80;92.10;;;;;;5043680;28;20260;-49
2021/03/28 01:55:15;;;;;;;6.90;2.17;;;24.80;92.10;;;;;;5041968;28;20041;-49
2021/03/28 01:58:08;;;;;;;4.77;2.00;;;24.90;92.10;;;;;;5046688;28;20017;-50
2021/03/28 02:01:10;;;;;;;6.70;1.60;;;24.90;92.00;;;;;;5046544;28;20064;-49
2021/03/28 02:03:52;;;;;;;7.65;2.25;;;24.90;91.90;;;;;;5044988;28;20029;-46
2021/03/28 02:06:34;;;;;;;7.60;1.88;;;24.80;91.80;;;;;;5046291;28;20085;-46
2021/03/28 02:09:13;;;;;;;7.88;1.88;;;24.80;92.00;;;;;;5045155;28;20028;-46
2021/03/28 02:12:09;;;;;;;7.55;2.20;;;24.80;92.20;;;;;;5046494;28;20025;-52
2021/03/28 02:14:42;;;;;;;6.22;1.80;;;24.80;92.40;;;;;;5045932;28;20157;-43
2021/03/28 02:17:34;;;;;;;6.35;2.10;;;24.80;92.20;;;;;;5046365;28;20025;-45
2021/03/28 02:20:52;;;;;;;5.78;2.10;;;24.80;92.20;;;;;;5045927;28;20014;-45
2021/03/28 02:23:46;;;;;;;8.00;1.85;;;24.80;92.20;;;;;;4995816;28;20037;-45
2021/03/28 02:26:34;;;;;;;9.07;1.88;;;24.80;92.30;;;;;;4998599;28;20037;-48
2021/03/28 02:29:30;;;;;;;8.40;1.83;;;24.80;92.10;;;;;;5041766;28;20218;-44
2021/03/28 02:32:02;;;;;;;7.97;1.90;;;24.80;91.90;;;;;;5046121;28;20028;-46
2021/03/28 02:35:04;;;;;;;;;;;24.80;91.90;;;;;;5046052;28;20091;-44
2021/03/28 02:37:54;;;;;;;6.88;1.90;;;24.80;92.10;;;;;;5043627;28;19991;-48
2021/03/28 02:41:11;;;;;;;7.25;1.60;;;24.80;92.00;;;;;;5045054;28;20029;-48
2021/03/28 02:43:46;;;;;;;4.70;1.70;;;24.80;91.90;;;;;;5014232;28;20083;-45
2021/03/28 02:46:40;;;;;;;8.43;2.92;;;24.80;91.80;;;;;;5045614;28;20021;-49
2021/03/28 02:49:44;;;;;;;5.70;3.45;;;24.80;91.80;;;;;;5045160;28;20325;-50
2021/03/28 02:52:28;;;;;;;8.70;3.58;;;24.80;92.00;;;;;;5044934;28;20021;-42
2021/03/28 02:55:26;;;;;;;7.70;4.07;;;24.80;91.90;;;;;;5045970;28;20029;-47
2021/03/28 02:58:02;;;;;;;11.48;5.50;;;24.80;92.30;;;;;;5045744;28;20028;-46
2021/03/28 03:01:02;;;;;;;7.72;5.13;;;24.80;92.10;;;;;;5045252;28;20321;-47
2021/03/28 03:03:41;;;;;;;7.13;4.28;;;24.80;92.10;;;;;;5045368;28;20029;-48
2021/03/28 03:06:30;;;;;;;7.43;3.60;;;24.80;92.10;;;;;;5045134;28;20360;-46
2021/03/28 03:09:25;;;;;;;7.10;4.07;;;24.80;92.20;;;;;;5044885;28;20025;-44
2021/03/28 03:12:36;;;;;;;7.72;3.05;;;24.80;92.40;;;;;;5027563;28;20159;-45
2021/03/28 03:15:25;;;;;;;5.65;2.83;;;24.80;92.20;;;;;;5028334;28;20048;-47
2021/03/28 03:18:00;;;;;;;9.68;3.22;;;24.80;91.90;;;;;;5045057;28;20032;-45
2021/03/28 03:21:04;;;;;;;7.47;2.90;;;24.80;92.20;;;;;;5044815;28;20037;-43
2021/03/28 03:23:58;;;;;;;9.15;2.67;;;24.80;92.10;;;;;;5044001;28;20053;-46
2021/03/28 03:26:31;;;;;;;8.30;2.58;;;24.80;91.90;;;;;;5044813;28;20071;-50
2021/03/28 03:29:05;;;;;;;;;;;24.80;91.90;;;;;;5044682;28;20244;-46
2021/03/28 03:31:59;;;;;;;8.38;2.80;;;24.80;92.00;;;;;;5044870;28;19905;-45
2021/03/28 03:34:28;;;;;;;7.95;2.47;;;24.80;91.90;;;;;;5044071;28;20045;-44
2021/03/28 03:37:10;;;;;;;7.70;2.30;;;24.80;92.00;;;;;;5044715;28;20094;-47
2021/03/28 03:39:55;;;;;;;4.50;2.08;;;24.80;91.90;;;;;;5044384;28;20021;-45
2021/03/28 03:42:57;;;;;;;2.50;1.98;;;24.80;91.90;;;;;;5044590;28;20049;-45
2021/03/28 03:46:01;;;;;;;7.18;1.98;;;24.80;91.70;;;;;;5037413;28;20079;-46
2021/03/28 03:48:42;;;;;;;7.13;2.20;;;24.80;91.60;;;;;;5043636;28;20209;-41
2021/03/28 03:51:31;;;;;;;3.90;2.00;;;24.80;91.50;;;;;;5044205;28;20045;-45
2021/03/28 03:54:08;;;;;;;7.80;2.33;;;24.80;91.50;;;;;;5042556;28;20029;-48
2021/03/28 03:56:53;;;;;;;11.02;2.20;;;24.80;91.50;;;;;;5044138;28;20282;-48
2021/03/28 03:59:33;;;;;;;9.93;2.60;;;24.80;91.60;;;;;;5043827;28;20017;-44
2021/03/28 04:01:59;;;;;;;3.47;2.35;;;24.80;91.60;;;;;;5044247;28;20040;-44
2021/03/28 04:04:40;;;;;;;6.07;2.40;;;24.80;91.60;;;;;;5043693;28;20021;-43
2021/03/28 04:07:15;;;;;;;5.53;2.35;;;24.90;91.50;;;;;;5044088;28;20026;-44
2021/03/28 04:10:06;;;;;;;7.60;2.00;;;24.90;91.60;;;;;;5043715;28;20025;-44
2021/03/28 04:12:48;;;;;;;10.70;2.15;;;24.80;91.70;;;;;;5044087;28;20030;-44
2021/03/28 04:15:33;;;;;;;6.90;2.03;;;24.80;91.80;;;;;;5043758;28;20022;-45
2021/03/28 04:18:07;;;;;;;2.85;1.60;;;24.80;91.90;;;;;;5042224;28;20210;-43
2021/03/28 04:20:59;;;;;;;7.80;2.13;;;24.80;92.10;;;;;;5042520;28;20080;-43
2021/03/28 04:23:47;;;;;;;18.92;2.33;;;24.80;92.00;;;;;;5043512;28;20021;-43
2021/03/28 04:26:31;;;;;;;9.88;2.00;;;24.80;91.90;;;;;;5043756;28;20068;-45
2021/03/28 04:29:13;;;;;;;6.35;1.95;;;24.80;92.10;;;;;;5043256;28;20033;-50
2021/03/28 04:32:00;;;;;;;5.68;1.95;;;24.80;92.20;;;;;;5043914;28;20092;-45
2021/03/28 04:34:50;;;;;;;9.18;2.03;;;24.80;92.50;;;;;;5042912;28;20348;-45
2021/03/28 04:37:29;;;;;;;5.50;1.83;;;24.80;92.40;;;;;;5043680;28;20033;-46
2021/03/28 04:40:26;;;;;;;8.45;2.05;;;24.80;92.30;;;;;;5043664;28;20018;-42
2021/03/28 04:43:11;;;;;;;4.72;1.75;;;24.80;92.30;;;;;;5043668;28;20025;-45
2021/03/28 04:45:59;;;;;;;5.63;2.00;;;24.80;92.30;;;;;;5043462;28;20021;-47
2021/03/28 04:48:58;;;;;;;5.35;1.75;;;24.80;92.20;;;;;;5043400;28;20030;-43
2021/03/28 04:52:01;;;;;;;6.93;2.00;;;24.80;92.10;;;;;;5043713;28;20186;-44
2021/03/28 04:54:50;;;;;;;8.23;2.13;;;24.80;92.10;;;;;;5042919;28;20036;-46
2021/03/28 04:57:19;;;;;;;5.75;2.42;;;24.80;92.00;;;;;;5042197;28;20017;-43
2021/03/28 05:00:18;;;;;;;5.80;2.00;;;24.80;92.10;;;;;;5043995;28;20033;-50
2021/03/28 05:03:15;;;;;;;6.22;2.58;;;24.80;91.80;;;;;;5043688;28;20064;-49
2021/03/28 05:06:23;;;;;;;4.93;2.17;;;24.80;91.90;;;;;;5043584;28;20055;-44
2021/03/28 05:08:57;;;;;;;8.32;2.35;;;24.80;91.90;;;;;;5046625;28;20025;-44
2021/03/28 05:12:05;;;;;;;7.15;2.40;;;24.80;91.80;;;;;;5045674;28;20111;-43
2021/03/28 05:15:01;;;;;;;5.53;2.55;;;24.80;91.70;;;;;;5005397;28;20034;-45
2021/03/28 05:17:49;;;;;;;6.35;2.40;;;24.80;91.80;;;;;;5047040;28;20029;-45
2021/03/28 05:20:51;;;;;;;7.30;2.58;;;24.80;91.90;;;;;;5046898;28;20269;-45
2021/03/28 05:23:17;;;;;;;8.52;3.35;;;24.80;91.90;;;;;;5046559;28;20045;-45
2021/03/28 05:25:50;;;;;;;8.77;2.97;;;24.80;91.90;;;;;;5046793;28;20040;-44
2021/03/28 05:28:35;;;;;;;9.52;3.28;;;24.80;91.80;;;;;;5046507;28;20033;-46
2021/03/28 05:31:33;;;;;;;5.13;2.78;;;24.80;91.90;;;;;;5046596;28;20028;-45
2021/03/28 05:34:21;;;;;;;6.30;2.58;;;24.80;91.70;;;;;;5046177;28;20037;-44
2021/03/28 05:37:04;;;;;;;6.57;2.53;;;24.80;91.60;;;;;;5046736;28;20044;-45
2021/03/28 05:40:02;;;;;;;8.98;2.83;;;24.80;91.70;;;;;;5046123;28;20032;-49
2021/03/28 05:42:47;;;;;;;4.72;2.65;;;24.80;91.80;;;;;;5046192;28;20019;-44
2021/03/28 05:45:32;;;;;;;8.90;2.80;;;24.80;91.70;;;;;;5046593;28;20344;-41
2021/03/28 05:48:19;;;;;;;10.98;3.00;;;24.80;91.80;;;;;;5046251;28;20071;-46
2021/03/28 05:51:24;;;;;;;7.03;2.65;;;24.80;91.70;;;;;;5046337;28;20021;-45
2021/03/28 05:54:28;;;;;;;5.95;3.30;;;24.80;91.70;;;;;;5046183;28;20218;-45
2021/03/28 05:57:22;;;;;;;6.65;2.88;;;24.80;91.50;;;;;;5045348;28;20094;-48
2021/03/28 06:00:03;;;;;;;5.78;2.55;;;24.80;91.50;;;;;;5046127;28;20021;-46
2021/03/28 06:02:41;;;;;;;8.90;3.00;;;24.80;91.50;;;;;;5046149;28;20076;-48
2021/03/28 06:05:33;;;;;;;7.22;2.90;;;24.80;91.40;;;;;;5045980;28;20032;-45
2021/03/28 06:08:08;;;;;;;6.55;2.72;;;24.80;91.30;;;;;;5046144;28;20308;-48
2021/03/28 06:11:12;;;;;;;8.48;2.55;;;24.80;91.30;;;;;;5045240;28;20029;-45
2021/03/28 06:13:44;;;;;;;8.10;2.80;;;24.80;91.10;;;;;;5045737;28;20037;-42
2021/03/28 06:16:22;;;;;;;;;;;24.80;91.20;;;;;;5046360;28;20018;-47
2021/03/28 06:19:22;;;;;;;5.28;2.80;;;24.80;91.20;;;;;;5045811;28;19912;-47
2021/03/28 06:22:13;;;;;;;4.75;2.63;;;24.80;91.10;;;;;;5045775;28;20021;-49
2021/03/28 06:25:13;;;;;;;9.27;3.10;;;24.80;91.20;;;;;;5045528;28;20084;-46
2021/03/28 06:28:14;;;;;;;8.45;3.00;;;24.80;91.20;;;;;;5046079;28;20021;-46
2021/03/28 06:31:13;;;;;;;7.50;2.75;;;24.80;91.10;;;;;;5045521;28;20045;-53
2021/03/28 06:34:17;;;;;;;10.90;3.15;;;24.80;91.10;;;;;;5045258;28;20041;-45
2021/03/28 06:37:02;;;;;;;6.45;2.95;;;24.80;91.10;;;;;;5045449;28;20022;-45
2021/03/28 06:39:46;;;;;;;7.68;2.63;;;24.80;91.30;;;;;;5045846;28;20017;-46
2021/03/28 06:42:31;;;;;;;12.07;2.92;;;24.80;91.20;;;;;;5045385;28;20017;-47
2021/03/28 06:45:34;;;;;;;5.82;2.97;;;24.80;91.30;;;;;;5045106;28;20052;-45
2021/03/28 06:48:19;;;;;;;9.27;3.15;;;24.90;91.30;;;;;;5045207;28;20025;-47
2021/03/28 06:51:22;;;;;;;8.30;3.30;;;24.80;91.50;;;;;;5045163;28;20056;-45
2021/03/28 06:54:25;;;;;;;9.70;3.30;;;24.80;91.60;;;;;;5045261;28;20075;-46
2021/03/28 06:57:13;;;;;;;11.27;3.33;;;24.80;91.70;;;;;;5045157;28;20021;-45
2021/03/28 06:59:56;;;;;;;8.73;3.20;;;24.80;91.70;;;;;;5045379;28;20031;-45
2021/03/28 07:02:38;;;;;;;8.15;3.63;;;24.80;91.60;;;;;;5044995;28;20022;-50
2021/03/28 07:05:32;;;;;;;8.77;3.35;;;24.80;91.70;;;;;;5045219;28;20037;-47
2021/03/28 07:08:08;;;;;;;9.82;3.70;;;24.80;91.50;;;;;;5044692;28;20025;-51
2021/03/28 07:10:53;;;;;;;11.95;4.13;;;24.80;91.50;;;;;;5044877;28;20025;-49
2021/03/28 07:14:01;;;;;;;9.52;4.00;;;24.80;91.50;;;;;;5044610;28;20364;-45
2021/03/28 07:17:07;;;;;;;15.25;4.40;;;24.80;91.70;;;;;;5022113;28;20034;-45
2021/03/28 07:20:03;;;;;;;6.53;3.50;;;24.80;91.90;;;;;;5044857;28;20022;-45
2021/03/28 07:22:50;;;;;;;7.40;3.90;;;24.80;91.80;;;;;;5044544;28;20020;-46
2021/03/28 07:25:38;;;;;;;9.85;3.83;;;24.80;91.90;;;;;;5044508;28;20080;-47
2021/03/28 07:28:44;;;;;;;7.57;4.13;;;24.80;92.00;;;;;;5044108;28;20044;-47
2021/03/28 07:31:35;;;;;;;6.07;4.15;;;24.80;91.50;;;;;;5044319;28;20344;-44
2021/03/28 07:34:50;;;;;;;10.57;4.72;;;24.80;91.50;;;;;;5044090;28;20262;-45
2021/03/28 07:37:48;;;;;;;11.10;5.18;;;24.80;91.30;;;;;;5040864;28;20033;-45
2021/03/28 07:40:32;;;;;;;9.45;4.90;;;24.80;91.30;;;;;;5044422;28;20030;-45
2021/03/28 07:43:33;;;;;;;8.23;5.10;;;24.80;91.20;;;;;;5044193;28;20024;-44
2021/03/28 07:46:37;;;;;;;7.78;5.13;;;24.80;91.10;;;;;;5044344;28;20057;-46
2021/03/28 07:49:22;;;;;;;10.00;5.65;;;24.80;91.00;;;;;;5044594;28;20013;-46
2021/03/28 07:52:26;;;;;;;11.40;5.72;;;24.80;90.90;;;;;;5044158;28;20030;-53
2021/03/28 07:54:53;;;;;;;14.10;6.10;;;24.80;90.70;;;;;;5043528;28;20041;-45
2021/03/28 07:57:38;;;;;;;14.02;6.03;;;24.80;90.80;;;;;;5042737;28;20217;-50
2021/03/28 08:00:20;;;;;;;11.23;6.35;;;24.80;91.00;;;;;;5042836;28;20074;-43
2021/03/28 08:03:07;;;;;;;11.70;6.22;;;24.80;90.90;;;;;;5043665;28;20171;-44
2021/03/28 08:05:52;;;;;;;9.93;5.95;;;24.80;90.80;;;;;;5043843;28;20030;-45
2021/03/28 08:08:45;;;;;;;9.13;5.97;;;24.80;90.90;;;;;;5044093;28;20013;-50
2021/03/28 08:11:22;;;;;;;10.70;6.88;;;24.80;90.70;;;;;;5043616;28;20013;-45
2021/03/28 08:14:19;;;;;;;13.45;6.50;;;24.80;90.60;;;;;;5043859;28;20084;-50
2021/03/28 08:17:28;;;;;;;16.88;6.35;;;24.90;90.60;;;;;;5043549;28;20071;-53
2021/03/28 08:20:21;;;;;;;16.65;6.75;;;24.80;90.50;;;;;;5041859;28;20071;-46
2021/03/28 08:23:06;;;;;;;;;;;24.90;90.50;;;;;;5042123;28;20048;-46
2021/03/28 08:25:52;;;;;;;9.57;6.30;;;24.90;90.40;;;;;;5041882;28;19963;-51
2021/03/28 08:28:37;;;;;;;11.48;6.80;;;24.80;90.50;;;;;;5041909;28;20072;-48
2021/03/28 08:31:20;;;;;;;11.90;6.40;;;24.80;90.40;;;;;;5041611;28;20121;-47
2021/03/28 08:34:08;;;;;;;10.05;6.53;;;24.80;90.40;;;;;;5042872;28;20405;-46
2021/03/28 08:36:58;;;;;;;9.50;6.40;;;24.80;90.20;;;;;;5043563;28;20111;-46
2021/03/28 08:39:43;;;;;;;11.15;6.13;;;24.80;90.20;;;;;;5043761;28;20056;-50
2021/03/28 08:42:22;;;;;;;10.40;6.75;;;24.80;90.10;;;;;;5047744;28;20273;-47
2021/03/28 08:45:25;;;;;;;9.77;6.85;;;24.80;90.10;;;;;;5047899;28;20018;-46
2021/03/28 08:48:01;;;;;;;15.73;6.25;;;24.80;89.60;;;;;;5047189;28;20033;-46
2021/03/28 08:51:09;;;;;;;10.23;6.13;;;24.80;89.40;;;;;;5047356;28;20025;-46
2021/03/28 08:53:52;;;;;;;10.10;6.35;;;24.80;89.30;;;;;;5033886;28;20037;-51
2021/03/28 08:56:36;;;;;;;9.70;6.60;;;24.80;89.10;;;;;;5047161;28;20056;-48
2021/03/28 08:59:19;;;;;;;12.20;6.32;;;24.80;88.90;;;;;;5047586;28;20100;-47
2021/03/28 09:02:06;;;;;;;8.82;6.50;;;24.80;88.60;;;;;;5047160;28;20025;-47
2021/03/28 09:05:03;;;;;;;9.50;6.32;;;24.80;88.40;;;;;;5047664;28;20027;-49
2021/03/28 09:08:02;;;;;;;8.65;5.70;;;24.90;88.10;;;;;;5047212;28;20213;-49
2021/03/28 09:11:05;;;;;;;9.82;5.90;;;24.80;87.60;;;;;;5047166;28;20025;-45
2021/03/28 09:13:50;;;;;;;13.10;6.70;;;24.90;87.80;;;;;;5047154;28;20088;-46
2021/03/28 09:16:22;;;;;;;9.57;6.20;;;24.80;87.90;;;;;;5046773;28;20029;-53
2021/03/28 09:19:19;;;;;;;8.77;6.00;;;24.90;87.30;;;;;;5047206;28;20045;-47
2021/03/28 09:21:54;;;;;;;11.40;6.70;;;24.80;87.30;;;;;;5047027;28;20021;-46
2021/03/28 09:24:33;;;;;;;16.48;6.45;;;24.90;87.40;;;;;;5047057;28;20029;-45
2021/03/28 09:27:22;;;;;;;9.10;5.78;;;24.90;87.10;;;;;;5046603;28;20217;-45
2021/03/28 09:30:17;;;;;;;10.48;6.72;;;24.90;87.50;;;;;;5047160;28;20351;-46
2021/03/28 09:33:07;;;;;;;10.90;6.30;;;24.90;87.10;;;;;;5046784;28;20093;-46
2021/03/28 09:35:49;;;;;;;10.18;6.45;;;24.90;87.10;;;;;;5046628;28;20337;-46
2021/03/28 09:38:34;;;;;;;11.85;6.32;;;24.90;87.20;;;;;;5046928;28;20032;-47
2021/03/28 09:41:22;;;;;;;11.52;6.47;;;24.90;87.20;;;;;;5046636;28;20226;-45
2021/03/28 09:44:19;;;;;;;9.38;5.78;;;24.90;87.00;;;;;;5046646;28;20336;-45
2021/03/28 09:47:16;;;;;;;10.63;6.38;;;24.90;86.80;;;;;;5046542;28;20226;-47
2021/03/28 09:49:59;;;;;;;11.95;6.85;;;24.90;86.80;;;;;;5046917;28;20025;-45
2021/03/28 09:52:52;;;;;;;8.18;6.15;;;24.80;86.60;;;;;;5045593;28;20033;-47
2021/03/28 09:55:24;;;;;;;;;;;24.80;86.70;;;;;;5046565;28;20025;-53
2021/03/28 09:58:34;;;;;;;8.82;6.10;;;24.90;86.70;;;;;;5046368;28;19901;-49
2021/03/28 10:01:10;;;;;;;11.82;6.07;;;24.80;86.90;;;;;;5046253;28;20044;-45
2021/03/28 10:03:45;;;;;;;8.80;6.35;;;24.90;87.10;;;;;;5046462;28;20084;-52
2021/03/28 10:06:18;;;;;;;8.98;6.32;;;24.90;87.20;;;;;;5046357;28;20036;-46
2021/03/28 10:09:09;;;;;;;13.38;6.75;;;24.90;87.30;;;;;;5046433;28;20025;-46
2021/03/28 10:12:02;;;;;;;8.75;6.13;;;24.90;87.40;;;;;;5046062;28;20203;-49
2021/03/28 10:14:37;;;;;;;11.07;6.30;;;24.90;87.40;;;;;;5046416;28;20025;-52
2021/03/28 10:17:13;;;;;;;10.15;6.18;;;24.80;87.30;;;;;;5046184;28;20021;-47
2021/03/28 10:19:53;;;;;;;10.60;6.60;;;24.80;87.40;;;;;;5046306;28;20087;-50
2021/03/28 10:22:23;;;;;;;8.95;6.45;;;24.90;87.90;;;;;;5045915;28;20026;-48
2021/03/28 10:24:49;;;;;;;9.18;6.18;;;24.80;87.70;;;;;;5045608;28;20028;-52
2021/03/28 10:27:55;;;;;;;9.20;5.85;;;24.80;87.70;;;;;;5046013;28;20025;-44
2021/03/28 10:30:35;;;;;;;7.38;5.72;;;24.80;87.70;;;;;;5045780;28;20029;-48
2021/03/28 10:33:36;;;;;;;11.60;6.30;;;24.90;88.00;;;;;;5045809;28;20017;-42
2021/03/28 10:36:10;;;;;;;9.60;6.30;;;24.90;87.60;;;;;;5045657;28;20038;-41
2021/03/28 10:39:05;;;;;;;8.93;6.10;;;24.90;87.70;;;;;;5045642;28;20017;-45
2021/03/28 10:41:56;;;;;;;9.43;5.88;;;24.90;87.50;;;;;;5045453;28;20029;-48
2021/03/28 10:45:05;;;;;;;8.13;6.13;;;24.80;87.70;;;;;;5044508;28;20083;-46
2021/03/28 10:47:46;;;;;;;7.72;5.60;;;24.80;88.00;;;;;;5045309;28;20076;-44
2021/03/28 10:50:31;;;;;;;9.37;6.03;;;24.90;88.20;;;;;;5045357;28;20030;-44
2021/03/28 10:53:16;;;;;;;6.93;5.65;;;24.90;88.40;;;;;;5045362;28;20271;-47
2021/03/28 10:56:20;;;;;;;10.10;5.97;;;24.90;88.50;;;;;;5045374;28;20352;-43
2021/03/28 10:59:04;;;;;;;7.78;6.00;;;24.90;88.50;;;;;;5045461;28;20209;-44
2021/03/28 11:01:57;;;;;;;10.88;6.35;;;24.90;88.40;;;;;;5045091;28;20036;-50
2021/03/28 11:04:42;;;;;;;11.70;6.53;;;24.90;88.50;;;;;;5044572;28;20068;-44
2021/03/28 11:07:40;;;;;;;11.25;6.07;;;24.90;88.30;;;;;;5045104;28;20097;-44
2021/03/28 11:10:22;;;;;;;9.73;6.32;;;24.90;88.20;;;;;;5027749;28;20034;-44
2021/03/28 11:12:58;;;;;;;9.05;6.00;;;24.90;88.10;;;;;;5044831;28;20244;-43
2021/03/28 11:15:56;;;;;;;8.00;5.90;;;24.90;88.20;;;;;;5044558;28;20084;-45
2021/03/28 11:18:51;;;;;;;8.52;5.95;;;24.90;87.90;;;;;;5044901;28;20014;-44
2021/03/28 11:22:05;;;;;;;8.80;6.07;;;24.90;88.10;;;;;;5045049;28;20289;-45
2021/03/28 11:25:00;;;;;;;10.05;6.30;;;24.90;88.00;;;;;;5013817;28;20070;-48
2021/03/28 11:27:27;;;;;;;9.25;5.72;;;24.90;88.10;;;;;;5044643;28;20045;-48
2021/03/28 11:30:14;;;;;;;9.40;6.15;;;24.90;88.20;;;;;;5045136;28;20020;-56
2021/03/28 11:32:49;;;;;;;10.85;5.85;;;24.90;88.40;;;;;;5044525;28;20025;-46
2021/03/28 11:35:45;;;;;;;8.73;5.85;;;25.00;88.30;;;;;;5044261;28;20049;-47
2021/03/28 11:38:18;;;;;;;8.82;5.70;;;25.00;88.20;;;;;;5042661;28;20101;-49
2021/03/28 11:40:46;;;;;;;9.45;5.82;;;24.90;88.00;;;;;;5044327;28;20020;-46
2021/03/28 11:43:12;;;;;;;8.93;5.35;;;25.00;87.80;;;;;;5044531;28;20286;-48
2021/03/28 11:45:48;;;;;;;10.32;6.50;;;25.00;88.00;;;;;;5044411;28;20033;-47
2021/03/28 11:48:29;;;;;;;10.70;6.22;;;24.90;88.10;;;;;;5044587;28;20044;-46
2021/03/28 11:51:14;;;;;;;13.77;5.95;;;24.90;88.10;;;;;;5043931;28;20032;-46
2021/03/28 11:53:42;;;;;;;11.65;6.28;;;25.00;88.30;;;;;;5044390;28;20132;-49
2021/03/28 11:57:05;;;;;;;12.80;6.20;;;25.00;88.20;;;;;;5044295;28;20041;-45
2021/03/28 11:59:51;;;;;;;;;;;25.00;88.20;;;;;;5003294;28;20022;-47
2021/03/28 12:02:26;;;;;;;12.13;6.00;;;25.00;88.30;;;;;;5003029;28;19906;-48
2021/03/28 12:04:59;;;;;;;8.13;6.13;;;25.00;88.80;;;;;;5030159;28;20036;-47
2021/03/28 12:07:46;;;;;;;9.45;6.63;;;25.00;88.70;;;;;;5044089;28;20028;-47
2021/03/28 12:10:35;;;;;;;7.82;6.00;;;25.00;88.70;;;;;;5043933;28;20233;-51
2021/03/28 12:13:29;;;;;;;11.63;5.43;;;25.00;88.70;;;;;;5042919;28;20248;-52
2021/03/28 12:16:00;;;;;;;9.60;5.72;;;25.00;88.40;;;;;;5043630;28;20018;-48
2021/03/28 12:18:29;;;;;;;10.13;5.90;;;25.00;88.60;;;;;;5043944;28;20018;-48
2021/03/28 12:21:02;;;;;;;9.60;6.05;;;25.00;88.40;;;;;;5043924;28;20372;-47
2021/03/28 12:23:34;;;;;;;11.10;6.60;;;25.00;88.50;;;;;;5044186;28;20059;-46
2021/03/28 12:26:10;;;;;;;10.43;5.80;;;25.00;88.90;;;;;;5043764;28;20076;-49
2021/03/28 12:28:46;;;;;;;8.07;5.72;;;25.00;89.10;;;;;;5043969;28;20229;-49
2021/03/28 12:31:42;;;;;;;8.90;6.18;;;25.00;88.90;;;;;;5043674;28;20086;-47
2021/03/28 12:34:09;;;;;;;8.38;6.97;;;25.00;89.10;;;;;;5043559;28;20037;-47
2021/03/28 12:36:57;;;;;;;9.13;6.85;;;25.00;89.10;;;;;;5043577;28;20049;-45
2021/03/28 12:39:31;;;;;;;11.65;7.82;;;25.00;89.60;;;;;;5044108;28;20024;-47
2021/03/28 12:42:04;;;;;;;13.20;7.70;;;25.00;89.70;;;;;;5043664;28;20213;-48
2021/03/28 12:44:39;;;;;;;11.52;7.97;;;25.00;89.40;;;;;;5044238;28;20025;-53
2021/03/28 12:47:06;;;;;;;13.60;8.82;;;25.00;89.50;;;;;;5043741;28;20018;-47
2021/03/28 12:49:54;;;;;;;12.50;9.05;;;25.00;89.50;;;;;;5043851;28;20021;-51
2021/03/28 12:52:31;;;;;;;11.25;8.50;;;25.00;90.00;;;;;;5043352;28;20360;-48
2021/03/28 12:55:06;;;;;;;13.68;8.02;;;25.00;89.90;;;;;;5043445;28;20055;-46
2021/03/28 12:57:41;;;;;;;12.50;7.95;;;25.00;89.20;;;;;;5043294;28;20017;-46
2021/03/28 13:00:29;;;;;;;14.65;8.77;;;25.00;89.60;;;;;;5043479;28;20022;-47
2021/03/28 13:02:58;;;;;;;15.38;9.10;;;25.00;90.20;;;;;;5043511;28;20021;-45
2021/03/28 13:05:34;;;;;;;15.55;9.40;;;25.00;90.20;;;;;;5043661;28;20198;-48
2021/03/28 13:08:10;;;;;;;12.60;9.23;;;25.00;90.30;;;;;;5043454;28;20026;-45
2021/03/28 13:10:40;;;;;;;11.43;8.88;;;25.00;90.40;;;;;;5043476;28;20071;-48
2021/03/28 13:13:15;;;;;;;14.48;9.75;;;25.00;90.40;;;;;;5043306;28;20087;-47
2021/03/28 13:15:46;;;;;;;14.23;9.43;;;25.00;90.60;;;;;;5043600;28;20028;-47
2021/03/28 13:18:21;;;;;;;15.13;9.60;;;25.00;90.90;;;;;;5043560;28;20021;-50
2021/03/28 13:20:56;;;;;;;19.42;10.00;;;25.00;91.00;;;;;;5043365;28;20033;-45
2021/03/28 13:23:54;;;;;;;15.23;10.10;;;25.00;90.80;;;;;;5043426;28;20025;-50
2021/03/28 13:26:27;;;;;;;14.30;10.35;;;24.90;91.10;;;;;;5043151;28;20064;-49
2021/03/28 13:29:17;;;;;;;15.18;12.10;;;24.90;91.20;;;;;;5047137;28;20351;-50
2021/03/28 13:31:57;;;;;;;17.90;11.10;;;24.90;91.60;;;;;;5019228;28;20322;-47
2021/03/28 13:34:29;;;;;;;14.80;9.85;;;24.90;91.10;;;;;;5046556;28;20083;-50
2021/03/28 13:37:02;;;;;;;17.35;10.30;;;24.90;91.10;;;;;;5046734;28;20035;-54
2021/03/28 13:39:32;;;;;;;14.10;10.88;;;25.00;91.20;;;;;;5046480;28;20014;-45
2021/03/28 13:41:58;;;;;;;11.82;9.27;;;24.90;91.30;;;;;;5046707;28;20025;-46
2021/03/28 13:44:30;;;;;;;12.00;9.02;;;24.90;91.20;;;;;;5047037;28;20021;-46
2021/03/28 13:47:06;;;;;;;12.38;9.90;;;24.90;91.20;;;;;;5046491;28;20195;-45
2021/03/28 13:49:49;;;;;;;23.15;8.75;;;24.90;91.30;;;;;;5046810;28;20029;-45
2021/03/28 13:52:27;;;;;;;11.27;8.52;;;24.90;91.50;;;;;;5046258;28;20032;-46
2021/03/28 13:55:10;;;;;;;10.45;8.68;;;24.90;91.90;;;;;;5046883;28;20024;-45
2021/03/28 13:57:42;;;;;;;14.00;7.75;;;24.90;91.80;;;;;;5046414;28;20037;-46
2021/03/28 14:00:21;;;;;;;12.82;8.52;;;24.80;91.90;;;;;;5046415;28;20029;-48
2021/03/28 14:02:53;;;;;;;9.80;7.20;;;24.90;91.80;;;;;;5046099;28;20014;-46
2021/03/28 14:05:20;;;;;;;;;;;24.90;91.80;;;;;;5046720;28;20040;-46
2021/03/28 14:07:55;;;;;;;10.88;7.72;;;24.90;91.80;;;;;;5046120;28;19901;-47
2021/03/28 14:10:44;;;;;;;11.48;6.85;;;24.80;91.90;;;;;;5045933;28;20036;-48
2021/03/28 14:13:18;;;;;;;14.18;7.30;;;24.80;92.00;;;;;;5045971;28;20049;-47
2021/03/28 14:16:02;;;;;;;10.68;7.43;;;24.80;92.00;;;;;;5046031;28;20025;-47
2021/03/28 14:18:54;;;;;;;9.75;7.30;;;24.80;92.30;;;;;;5045854;28;20018;-45
2021/03/28 14:21:35;;;;;;;12.25;7.85;;;24.80;92.30;;;;;;5045905;28;20096;-50